createdAt,value
2023-02-18T00:00:31.700Z,65.78
2023-02-18T00:02:58.730Z,65.60
2023-02-18T00:05:25.655Z,67.97
2023-02-18T00:07:52.706Z,68.13
2023-02-18T00:10:19.572Z,63.60
2023-02-18T00:12:46.750Z,65.85
2023-02-18T00:15:13.704Z,61.95
2023-02-18T00:17:40.622Z,63.20
2023-02-18T00:20:07.934Z,63.63
2023-02-18T00:22:35.170Z,63.33
2023-02-18T00:25:02.063Z,63.22
2023-02-18T00:27:29.056Z,62.92
2023-02-18T00:29:56.124Z,62.92
2023-02-18T00:32:23.236Z,64.95
2023-02-18T00:34:50.189Z,63.40
2023-02-18T00:37:17.212Z,65.85
2023-02-18T00:39:44.567Z,66.22
2023-02-18T00:42:11.828Z,65.25
2023-02-18T00:44:38.675Z,64.88
2023-02-18T00:47:05.616Z,66.32
2023-02-18T00:49:32.643Z,67.93
2023-02-18T00:51:59.816Z,64.40
2023-02-18T00:54:26.667Z,66.53
2023-02-18T00:56:53.614Z,66.15
2023-02-18T00:59:20.638Z,67.22
2023-02-18T01:01:47.765Z,66.95
2023-02-18T01:04:14.744Z,66.25
2023-02-18T01:06:41.759Z,66.75
2023-02-18T01:09:08.711Z,68.03
2023-02-18T01:11:35.727Z,66.75
2023-02-18T01:14:04.149Z,67.93
2023-02-18T01:16:31.151Z,69.15
2023-02-18T01:18:58.064Z,65.93
2023-02-18T01:21:26.084Z,68.00
2023-02-18T01:23:53.117Z,68.78
2023-02-18T01:26:20.081Z,67.65
2023-02-18T01:28:46.892Z,69.25
2023-02-18T01:31:14.838Z,68.93
2023-02-18T01:33:42.546Z,67.47
2023-02-18T01:36:11.334Z,66.63
2023-02-18T01:38:38.637Z,67.10
2023-02-18T01:41:05.537Z,66.85
2023-02-18T01:43:32.935Z,66.93
2023-02-18T01:45:59.760Z,69.57
2023-02-18T01:48:31.488Z,70.13
2023-02-18T01:51:35.953Z,69.03
2023-02-18T01:54:11.834Z,70.88
2023-02-18T01:56:48.168Z,70.05
2023-02-18T01:59:21.691Z,69.93
2023-02-18T02:01:48.798Z,68.20
2023-02-18T02:04:15.722Z,68.05
2023-02-18T02:06:43.121Z,69.13
2023-02-18T02:09:14.846Z,69.13
2023-02-18T02:12:12.074Z,68.53
2023-02-18T02:14:59.907Z,67.25
2023-02-18T02:17:52.949Z,69.22
2023-02-18T02:20:28.962Z,68.05
2023-02-18T02:23:33.362Z,66.45
2023-02-18T02:26:35.146Z,69.22
2023-02-18T02:29:23.627Z,67.45
2023-02-18T02:31:53.209Z,67.82
2023-02-18T02:34:38.342Z,68.68
2023-02-18T02:37:32.896Z,67.10
2023-02-18T02:40:20.825Z,68.13
2023-02-18T02:43:26.966Z,66.47
2023-02-18T02:46:09.829Z,66.88
2023-02-18T02:49:02.101Z,65.43
2023-02-18T02:51:46.934Z,63.67
2023-02-18T02:54:22.049Z,65.03
2023-02-18T02:56:49.413Z,68.63
2023-02-18T02:59:24.873Z,69.68
2023-02-18T03:02:29.755Z,70.88
2023-02-18T03:05:34.194Z,71.72
2023-02-18T03:08:03.805Z,67.47
2023-02-18T03:10:54.047Z,72.40
2023-02-18T03:13:58.581Z,70.07
2023-02-18T03:16:49.713Z,69.18
2023-02-18T03:19:35.372Z,68.75
2023-02-18T03:22:11.171Z,71.50
2023-02-18T03:24:42.597Z,68.93
2023-02-18T03:27:15.202Z,69.70
2023-02-18T03:29:45.282Z,67.70
2023-02-18T03:34:46.796Z,68.88
2023-02-18T03:37:15.079Z,69.63
2023-02-18T03:39:46.486Z,65.45
2023-02-18T03:42:14.158Z,65.35
2023-02-18T03:44:41.064Z,61.40
2023-02-18T03:47:08.074Z,61.92
2023-02-18T03:49:34.865Z,62.80
2023-02-18T03:52:01.858Z,61.95
2023-02-18T03:54:28.794Z,60.65
2023-02-18T03:56:55.696Z,61.53
2023-02-18T03:59:22.490Z,60.25
2023-02-18T04:01:49.471Z,60.10
2023-02-18T04:04:16.364Z,60.03
2023-02-18T04:06:43.254Z,62.50
2023-02-18T04:09:10.135Z,59.15
2023-02-18T04:11:39.301Z,60.05
2023-02-18T04:14:07.893Z,61.08
2023-02-18T04:16:34.860Z,60.28
2023-02-18T04:19:01.797Z,63.38
2023-02-18T04:21:28.692Z,64.55
2023-02-18T04:23:55.568Z,67.07
2023-02-18T04:26:23.192Z,65.03
2023-02-18T04:28:50.088Z,66.97
2023-02-18T04:31:17.377Z,68.95
2023-02-18T04:33:44.464Z,66.15
2023-02-18T04:36:11.461Z,65.82
2023-02-18T04:38:38.307Z,63.25
2023-02-18T04:41:05.344Z,61.15
2023-02-18T04:43:32.120Z,59.33
2023-02-18T04:45:59.086Z,62.97
2023-02-18T04:48:26.032Z,60.17
2023-02-18T04:50:52.879Z,62.85
2023-02-18T04:53:19.779Z,62.65
2023-02-18T04:55:51.758Z,64.50
2023-02-18T04:58:19.761Z,65.93
2023-02-18T05:00:46.683Z,66.43
2023-02-18T05:03:14.273Z,68.30
2023-02-18T05:05:42.045Z,66.60
2023-02-18T05:08:09.109Z,68.15
2023-02-18T05:10:38.159Z,67.80
2023-02-18T05:13:05.414Z,68.03
2023-02-18T05:15:32.257Z,66.93
2023-02-18T05:17:59.138Z,68.97
2023-02-18T05:20:26.125Z,69.75
2023-02-18T05:22:52.970Z,68.55
2023-02-18T05:25:19.758Z,70.38
2023-02-18T05:27:46.649Z,71.10
2023-02-18T05:30:14.024Z,67.47
2023-02-18T05:32:41.093Z,69.10
2023-02-18T05:35:08.500Z,66.70
2023-02-18T05:37:35.549Z,66.82
2023-02-18T05:40:02.431Z,69.85
2023-02-18T05:42:29.483Z,69.30
2023-02-18T05:44:56.386Z,67.55
2023-02-18T05:47:23.270Z,67.05
2023-02-18T05:49:51.070Z,67.43
2023-02-18T05:52:17.986Z,67.25
2023-02-18T05:54:45.073Z,66.32
2023-02-18T05:57:15.102Z,66.43
2023-02-18T05:59:42.654Z,69.22
2023-02-18T06:02:09.474Z,69.63
2023-02-18T06:04:36.553Z,68.25
2023-02-18T06:07:03.601Z,69.10
2023-02-18T06:09:30.448Z,69.53
2023-02-18T06:11:57.468Z,67.10
2023-02-18T06:14:24.458Z,65.15
2023-02-18T06:16:51.306Z,62.38
2023-02-18T06:19:18.219Z,64.60
2023-02-18T06:21:45.048Z,63.47
2023-02-18T06:24:12.114Z,65.55
2023-02-18T06:26:39.041Z,66.90
2023-02-18T06:29:05.956Z,63.38
2023-02-18T06:31:32.976Z,62.95
2023-02-18T06:33:59.905Z,64.07
2023-02-18T06:36:26.669Z,65.53
2023-02-18T06:38:56.345Z,67.90
2023-02-18T06:41:23.214Z,66.93
2023-02-18T06:43:50.045Z,66.00
2023-02-18T06:46:17.172Z,66.15
2023-02-18T06:48:44.063Z,69.28
2023-02-18T06:51:10.985Z,66.40
2023-02-18T06:53:37.880Z,66.75
2023-02-18T06:56:05.176Z,69.38
2023-02-18T06:58:32.076Z,68.97
2023-02-18T07:00:59.093Z,67.60
2023-02-18T07:03:26.331Z,67.32
2023-02-18T07:05:53.333Z,66.90
2023-02-18T07:08:20.325Z,66.40
2023-02-18T07:10:48.283Z,66.47
2023-02-18T07:13:15.565Z,66.28
2023-02-18T07:15:42.416Z,65.93
2023-02-18T07:18:09.406Z,68.65
2023-02-18T07:20:36.200Z,67.00
2023-02-18T07:23:03.097Z,65.32
2023-02-18T07:25:30.046Z,64.00
2023-02-18T07:27:56.943Z,65.15
2023-02-18T07:30:23.871Z,63.40
2023-02-18T07:32:50.946Z,64.47
2023-02-18T07:35:18.730Z,63.28
2023-02-18T07:37:47.240Z,63.55
2023-02-18T07:40:22.437Z,65.80
2023-02-18T07:42:49.776Z,62.95
2023-02-18T07:45:16.850Z,65.15
2023-02-18T07:47:45.667Z,66.00
2023-02-18T07:50:12.509Z,65.40
2023-02-18T07:52:39.482Z,68.20
2023-02-18T07:55:06.703Z,65.93
2023-02-18T07:57:33.627Z,66.97
2023-02-18T08:00:00.484Z,69.28
2023-02-18T08:02:27.495Z,67.82
2023-02-18T08:04:54.547Z,68.63
2023-02-18T08:07:23.070Z,69.03
2023-02-18T08:09:51.021Z,68.55
2023-02-18T08:12:18.050Z,67.78
2023-02-18T08:14:45.004Z,67.40
2023-02-18T08:17:11.853Z,65.55
2023-02-18T08:19:38.869Z,64.40
2023-02-18T08:22:05.749Z,65.05
2023-02-18T08:24:32.622Z,66.03
2023-02-18T08:27:01.409Z,66.13
2023-02-18T08:29:29.600Z,67.88
2023-02-18T08:31:58.445Z,66.47
2023-02-18T08:34:25.892Z,67.63
2023-02-18T08:36:52.791Z,67.60
2023-02-18T08:39:19.704Z,65.90
2023-02-18T08:41:46.602Z,69.50
2023-02-18T08:44:13.492Z,67.55
2023-02-18T08:46:40.431Z,66.65
2023-02-18T08:49:07.318Z,67.45
2023-02-18T08:51:35.290Z,65.00
2023-02-18T08:54:02.325Z,62.97
2023-02-18T08:56:29.346Z,64.28
2023-02-18T08:58:56.180Z,62.20
2023-02-18T09:01:23.245Z,65.28
2023-02-18T09:03:50.154Z,66.13
2023-02-18T09:06:17.097Z,65.28
2023-02-18T09:08:44.085Z,67.15
2023-02-18T09:11:11.817Z,65.03
2023-02-18T09:13:38.960Z,65.75
2023-02-18T09:16:08.664Z,66.30
2023-02-18T09:18:38.494Z,66.28
2023-02-18T09:21:07.806Z,65.72
2023-02-18T09:23:35.578Z,64.53
2023-02-18T09:26:06.401Z,61.67
2023-02-18T09:28:34.446Z,63.63
2023-02-18T09:31:10.691Z,63.47
2023-02-18T09:33:45.746Z,62.47
2023-02-18T09:36:13.178Z,59.00
2023-02-18T09:38:40.134Z,59.53
2023-02-18T09:41:15.924Z,59.38
2023-02-18T09:43:48.478Z,55.80
2023-02-18T09:46:39.730Z,59.22
2023-02-18T09:49:19.191Z,55.72
2023-02-18T09:51:46.696Z,53.72
2023-02-18T09:54:16.886Z,55.05
2023-02-18T09:56:45.860Z,56.70
2023-02-18T09:59:19.500Z,56.45
2023-02-18T10:01:49.399Z,54.53
2023-02-18T10:04:32.179Z,56.88
2023-02-18T10:07:00.062Z,57.80
2023-02-18T10:09:40.403Z,55.95
2023-02-18T10:12:18.411Z,53.42
2023-02-18T10:14:50.689Z,56.85
2023-02-18T10:17:18.717Z,56.05
2023-02-18T10:19:48.831Z,52.40
2023-02-18T10:22:17.538Z,54.45
2023-02-18T10:24:54.248Z,53.17
2023-02-18T10:27:26.341Z,52.90
2023-02-18T10:29:56.087Z,52.45
2023-02-18T10:32:27.185Z,52.13
2023-02-18T10:35:21.542Z,50.55
2023-02-18T10:38:00.182Z,53.47
2023-02-18T10:40:39.124Z,50.58
2023-02-18T10:43:24.817Z,52.08
2023-02-18T10:46:20.218Z,52.67
2023-02-18T10:48:47.116Z,51.50
2023-02-18T10:51:22.112Z,49.45
2023-02-18T10:53:51.693Z,49.97
2023-02-18T10:56:41.020Z,50.15
2023-02-18T10:59:12.550Z,49.25
2023-02-18T11:01:40.895Z,50.00
2023-02-18T11:04:20.248Z,50.10
2023-02-18T11:06:49.573Z,50.15
2023-02-18T11:09:38.139Z,49.05
2023-02-18T11:12:17.875Z,49.90
2023-02-18T11:14:47.982Z,48.15
2023-02-18T11:17:42.662Z,49.13
2023-02-18T11:20:28.514Z,47.60
2023-02-18T11:23:21.944Z,48.80
2023-02-18T11:25:58.878Z,48.92
2023-02-18T11:28:41.214Z,49.28
2023-02-18T11:31:09.961Z,48.20
2023-02-18T11:33:43.490Z,47.03
2023-02-18T11:36:17.566Z,47.53
2023-02-18T11:38:49.894Z,46.72
2023-02-18T11:41:20.978Z,48.55
2023-02-18T11:43:53.340Z,46.10
2023-02-18T11:46:23.519Z,46.85
2023-02-18T11:48:51.833Z,47.63
2023-02-18T11:51:27.970Z,46.45
2023-02-18T11:54:22.878Z,45.83
2023-02-18T11:57:05.313Z,46.00
2023-02-18T11:59:40.142Z,44.90
2023-02-18T12:02:11.253Z,44.72
2023-02-18T12:04:48.829Z,45.00
2023-02-18T12:07:32.173Z,45.63
2023-02-18T12:10:04.860Z,44.58
2023-02-18T12:12:47.676Z,45.35
2023-02-18T12:15:22.530Z,45.97
2023-02-18T12:17:58.856Z,47.20
2023-02-18T12:21:03.277Z,44.00
2023-02-18T12:23:55.370Z,45.22
2023-02-18T12:26:37.375Z,45.40
2023-02-18T12:29:25.477Z,45.47
2023-02-18T12:32:17.402Z,45.65
2023-02-18T12:35:00.757Z,44.08
2023-02-18T12:37:33.658Z,44.92
2023-02-18T12:40:33.129Z,44.08
2023-02-18T12:43:17.929Z,45.97
2023-02-18T12:46:12.860Z,45.90
2023-02-18T12:49:00.266Z,46.20
2023-02-18T12:51:39.849Z,45.10
2023-02-18T12:54:40.462Z,44.00
2023-02-18T12:57:32.324Z,43.03
2023-02-18T13:00:30.991Z,45.58
2023-02-18T13:03:27.891Z,44.65
2023-02-18T13:05:58.234Z,45.50
2023-02-18T13:08:52.752Z,45.22
2023-02-18T13:11:25.909Z,44.35
2023-02-18T13:14:03.270Z,43.85
2023-02-18T13:16:32.937Z,45.80
2023-02-18T13:19:20.891Z,45.83
2023-02-18T13:21:50.996Z,44.25
2023-02-18T13:24:45.483Z,44.40
2023-02-18T13:27:19.596Z,42.33
2023-02-18T13:29:56.683Z,44.65
2023-02-18T13:32:39.755Z,43.65
2023-02-18T13:35:22.481Z,43.25
2023-02-18T13:38:04.198Z,44.10
2023-02-18T13:40:33.287Z,43.20
2023-02-18T13:43:31.354Z,42.93
2023-02-18T13:46:07.513Z,48.15
2023-02-18T13:48:42.682Z,46.70
2023-02-18T13:51:10.499Z,44.78
2023-02-18T13:53:42.844Z,43.33
2023-02-18T13:56:17.742Z,43.20
2023-02-18T13:58:50.681Z,43.10
2023-02-18T14:01:22.624Z,40.92
2023-02-18T14:03:55.812Z,41.45
2023-02-18T14:06:32.304Z,42.08
2023-02-18T14:09:14.399Z,43.08
2023-02-18T14:11:54.218Z,41.63
2023-02-18T14:14:27.220Z,43.25
2023-02-18T14:17:18.744Z,42.38
2023-02-18T14:20:13.003Z,42.88
2023-02-18T14:22:47.097Z,40.92
2023-02-18T14:25:48.472Z,40.70
2023-02-18T14:28:49.416Z,39.85
2023-02-18T14:31:16.264Z,39.47
2023-02-18T14:33:54.373Z,42.10
2023-02-18T14:36:47.030Z,38.97
2023-02-18T14:39:29.681Z,40.40
2023-02-18T14:42:06.318Z,41.47
2023-02-18T14:45:13.981Z,42.15
2023-02-18T14:48:16.751Z,39.90
2023-02-18T14:50:49.412Z,40.97
2023-02-18T14:53:23.734Z,41.25
2023-02-18T14:55:55.456Z,39.97
2023-02-18T14:58:39.284Z,39.13
2023-02-18T15:01:33.616Z,40.42
2023-02-18T15:04:02.161Z,39.97
2023-02-18T15:06:31.880Z,39.28
2023-02-18T15:09:03.348Z,38.55
2023-02-18T15:11:40.204Z,38.40
2023-02-18T15:14:38.374Z,38.88
2023-02-18T15:17:08.193Z,38.30
2023-02-18T15:19:44.723Z,39.60
2023-02-18T15:22:20.339Z,38.13
2023-02-18T15:24:48.118Z,38.63
2023-02-18T15:27:20.070Z,38.40
2023-02-18T15:29:56.571Z,37.88
2023-02-18T15:32:29.460Z,38.00
2023-02-18T15:34:59.078Z,38.35
2023-02-18T15:37:25.985Z,37.05
2023-02-18T15:39:52.876Z,38.03
2023-02-18T15:42:27.781Z,39.55
2023-02-18T15:45:06.383Z,39.55
2023-02-18T15:47:33.876Z,38.08
2023-02-18T15:50:02.975Z,39.13
2023-02-18T15:52:33.878Z,38.47
2023-02-18T15:55:11.905Z,38.05
2023-02-18T15:57:40.242Z,39.70
2023-02-18T16:00:39.478Z,38.17
2023-02-18T16:03:16.772Z,41.28
2023-02-18T16:05:43.667Z,39.22
2023-02-18T16:08:24.809Z,38.72
2023-02-18T16:10:54.565Z,38.15
2023-02-18T16:13:21.980Z,37.70
2023-02-18T16:15:51.390Z,36.80
2023-02-18T16:18:31.664Z,36.40
2023-02-18T16:21:17.357Z,35.20
2023-02-18T16:23:58.324Z,34.92
2023-02-18T16:26:30.139Z,34.35
2023-02-18T16:29:05.598Z,32.33
2023-02-18T16:31:32.558Z,34.28
2023-02-18T16:33:59.493Z,34.42
2023-02-18T16:36:26.528Z,33.03
2023-02-18T16:38:53.454Z,34.65
2023-02-18T16:41:20.407Z,32.38
2023-02-18T16:43:47.325Z,31.30
2023-02-18T16:46:21.456Z,31.45
2023-02-18T16:48:55.164Z,32.67
2023-02-18T16:51:22.089Z,30.35
2023-02-18T16:53:48.937Z,33.25
2023-02-18T16:56:18.749Z,31.25
2023-02-18T16:58:45.711Z,32.90
2023-02-18T17:01:26.261Z,31.95
2023-02-18T17:03:53.818Z,30.95
2023-02-18T17:06:21.774Z,32.20
2023-02-18T17:08:49.099Z,36.67
2023-02-18T17:11:36.518Z,34.15
2023-02-18T17:14:05.242Z,32.58
2023-02-18T17:16:32.334Z,30.52
2023-02-18T17:21:28.899Z,30.83
2023-02-18T17:23:55.917Z,31.48
2023-02-18T17:26:26.228Z,33.85
2023-02-18T17:28:55.383Z,31.48
2023-02-18T17:31:26.733Z,32.00
2023-02-18T17:33:55.404Z,31.48
2023-02-18T17:36:23.206Z,33.15
2023-02-18T17:38:50.556Z,35.05
2023-02-18T17:41:18.003Z,32.33
2023-02-18T17:43:45.278Z,33.20
2023-02-18T17:46:14.415Z,32.65
2023-02-18T17:48:42.825Z,33.67
2023-02-18T17:51:26.937Z,32.42
2023-02-18T17:53:57.056Z,31.73
2023-02-18T17:56:24.144Z,31.13
2023-02-18T17:58:51.172Z,31.95
2023-02-18T18:01:18.885Z,32.25
2023-02-18T18:03:45.920Z,31.48
2023-02-18T18:06:21.138Z,34.03
2023-02-18T18:08:49.490Z,31.98
2023-02-18T18:11:22.376Z,32.63
2023-02-18T18:13:49.910Z,31.80
2023-02-18T18:16:18.160Z,31.42
2023-02-18T18:18:45.407Z,32.17
2023-02-18T18:21:33.030Z,31.27
2023-02-18T18:24:00.347Z,32.08
2023-02-18T18:26:27.674Z,32.15
2023-02-18T18:28:54.997Z,30.88
2023-02-18T18:31:22.466Z,31.50
2023-02-18T18:33:53.415Z,30.35
2023-02-18T18:36:24.369Z,30.73
2023-02-18T18:38:51.952Z,32.13
2023-02-18T18:41:21.523Z,30.60
2023-02-18T18:43:49.990Z,30.55
2023-02-18T18:46:17.722Z,32.13
2023-02-18T18:48:44.609Z,31.75
2023-02-18T18:51:16.759Z,31.88
2023-02-18T18:53:43.967Z,29.92
2023-02-18T18:56:12.071Z,30.65
2023-02-18T18:58:39.222Z,32.53
2023-02-18T19:01:13.101Z,30.77
2023-02-18T19:03:41.682Z,29.85
2023-02-18T19:06:10.988Z,30.02
2023-02-18T19:08:38.028Z,31.67
2023-02-18T19:11:05.939Z,30.48
2023-02-18T19:13:36.153Z,31.27
2023-02-18T19:16:14.525Z,30.67
2023-02-18T19:18:41.450Z,30.05
2023-02-18T19:21:08.816Z,30.88
2023-02-18T19:23:36.625Z,31.35
2023-02-18T19:26:04.088Z,30.40
2023-02-18T19:28:31.448Z,29.90
2023-02-18T19:30:58.371Z,29.48
2023-02-18T19:33:25.260Z,31.13
2023-02-18T19:35:52.160Z,30.52
2023-02-18T19:38:20.932Z,30.17
2023-02-18T19:40:48.191Z,28.98
2023-02-18T19:43:15.253Z,29.50
2023-02-18T19:45:44.351Z,29.00
2023-02-18T19:48:12.494Z,29.63
2023-02-18T19:50:40.609Z,29.20
2023-02-18T19:53:08.202Z,28.70
2023-02-18T19:55:35.087Z,27.50
2023-02-18T19:58:02.782Z,29.65
2023-02-18T20:00:29.840Z,28.15
2023-02-18T20:02:57.008Z,28.05
2023-02-18T20:05:24.135Z,28.10
2023-02-18T20:07:51.069Z,28.77
2023-02-18T20:10:22.264Z,28.52
2023-02-18T20:12:55.238Z,27.50
2023-02-18T20:15:22.715Z,27.67
2023-02-18T20:17:50.137Z,27.52
2023-02-18T20:20:17.988Z,27.27
2023-02-18T20:22:45.263Z,27.70
2023-02-18T20:25:12.131Z,26.55
2023-02-18T20:27:45.252Z,28.98
2023-02-18T20:30:21.837Z,27.83
2023-02-18T20:32:48.828Z,30.20
2023-02-18T20:35:15.731Z,27.73
2023-02-18T20:37:42.594Z,28.38
2023-02-18T20:40:09.680Z,28.20
2023-02-18T20:42:36.564Z,28.17
2023-02-18T20:45:03.571Z,26.25
2023-02-18T20:47:30.416Z,26.45
2023-02-18T20:49:57.427Z,26.63
2023-02-18T20:52:24.370Z,25.85
2023-02-18T20:54:51.247Z,26.77
2023-02-18T20:57:18.122Z,26.75
2023-02-18T20:59:45.218Z,27.50
2023-02-18T21:02:15.462Z,25.92
2023-02-18T21:04:42.931Z,27.45
2023-02-18T21:07:09.770Z,26.85
2023-02-18T21:09:37.055Z,27.13
2023-02-18T21:12:04.184Z,26.60
2023-02-18T21:14:31.115Z,27.63
2023-02-18T21:16:58.083Z,25.45
2023-02-18T21:19:25.150Z,25.95
2023-02-18T21:21:52.182Z,25.23
2023-02-18T21:24:19.088Z,25.30
2023-02-18T21:26:45.909Z,25.25
2023-02-18T21:29:15.617Z,24.88
2023-02-18T21:31:43.906Z,24.98
2023-02-18T21:34:13.743Z,25.83
2023-02-18T21:36:41.638Z,26.13
2023-02-18T21:39:10.872Z,24.40
2023-02-18T21:41:40.679Z,23.38
2023-02-18T21:44:09.236Z,24.50
2023-02-18T21:46:37.061Z,23.65
2023-02-18T21:49:06.234Z,24.75
2023-02-18T21:51:57.880Z,24.00
2023-02-18T21:54:30.903Z,24.13
2023-02-18T21:56:59.571Z,22.90
2023-02-18T21:59:28.852Z,23.48
2023-02-18T22:02:00.522Z,22.88
2023-02-18T22:04:29.850Z,22.98
2023-02-18T22:06:57.064Z,22.00
2023-02-18T22:09:24.010Z,23.48
2023-02-18T22:11:51.766Z,22.10
2023-02-18T22:14:18.773Z,22.42
2023-02-18T22:16:46.142Z,21.67
2023-02-18T22:19:14.271Z,21.15
2023-02-18T22:21:41.847Z,23.50
2023-02-18T22:24:09.442Z,22.70
2023-02-18T22:26:36.316Z,22.45
2023-02-18T22:29:03.501Z,22.52
2023-02-18T22:31:31.720Z,22.42
2023-02-18T22:34:04.950Z,23.00
2023-02-18T22:36:36.884Z,22.73
2023-02-18T22:39:04.812Z,22.27
2023-02-18T22:41:33.126Z,23.20
2023-02-18T22:44:02.842Z,22.38
2023-02-18T22:46:31.930Z,22.67
2023-02-18T22:49:00.198Z,22.20
2023-02-18T22:51:31.326Z,22.67
2023-02-18T22:53:59.953Z,22.00
2023-02-18T22:56:28.564Z,20.67
2023-02-18T22:58:56.514Z,20.10
2023-02-18T23:01:31.990Z,19.75
2023-02-18T23:04:04.477Z,19.83
2023-02-18T23:06:31.669Z,20.50
2023-02-18T23:08:58.836Z,20.05
2023-02-18T23:11:26.052Z,21.45
2023-02-18T23:14:13.800Z,20.45
2023-02-18T23:16:59.327Z,21.33
2023-02-18T23:19:28.079Z,21.52
2023-02-18T23:21:54.933Z,21.83
2023-02-18T23:24:22.659Z,23.50
2023-02-18T23:26:50.230Z,23.27
2023-02-18T23:29:17.380Z,23.88
2023-02-18T23:31:44.581Z,24.83
2023-02-18T23:34:14.461Z,25.30
2023-02-18T23:36:43.014Z,25.88
2023-02-18T23:39:13.598Z,27.52
2023-02-18T23:41:40.537Z,27.08
2023-02-18T23:44:10.366Z,26.70
2023-02-18T23:46:37.796Z,28.27
2023-02-18T23:49:05.423Z,27.90
2023-02-18T23:51:32.645Z,26.58
2023-02-18T23:54:02.705Z,28.75
2023-02-18T23:59:02.175Z,27.13
